sensor_id;sensor_type;location;lat;lon;timestamp;P1;durP1;ratioP1;P2;durP2;ratioP2
71606;SDS011;60641;53.556;9.914;2024-03-08T00:00:38;20.00;;;9.20;;
71606;SDS011;60641;53.556;9.914;2024-03-08T00:03:26;17.40;;;7.70;;
71606;SDS011;60641;53.556;9.914;2024-03-08T00:05:53;17.40;;;7.60;;
71606;SDS011;60641;53.556;9.914;2024-03-08T00:08:19;17.40;;;7.10;;
71606;SDS011;60641;53.556;9.914;2024-03-08T00:10:46;18.70;;;9.20;;
71606;SDS011;60641;53.556;9.914;2024-03-08T00:13:12;20.70;;;9.80;;
71606;SDS011;60641;53.556;9.914;2024-03-08T00:15:38;19.40;;;9.30;;
71606;SDS011;60641;53.556;9.914;2024-03-08T00:18:05;21.60;;;9.30;;
71606;SDS011;60641;53.556;9.914;2024-03-08T00:20:31;16.20;;;8.10;;
71606;SDS011;60641;53.556;9.914;2024-03-08T00:22:58;19.90;;;9.20;;
71606;SDS011;60641;53.556;9.914;2024-03-08T00:25:24;17.40;;;8.30;;
71606;SDS011;60641;53.556;9.914;2024-03-08T00:27:51;18.20;;;8.10;;
71606;SDS011;60641;53.556;9.914;2024-03-08T00:30:17;21.90;;;10.10;;
71606;SDS011;60641;53.556;9.914;2024-03-08T00:32:44;17.40;;;7.00;;
71606;SDS011;60641;53.556;9.914;2024-03-08T00:35:10;17.80;;;7.90;;
71606;SDS011;60641;53.556;9.914;2024-03-08T00:37:38;18.60;;;8.50;;
71606;SDS011;60641;53.556;9.914;2024-03-08T00:40:04;19.70;;;8.80;;
71606;SDS011;60641;53.556;9.914;2024-03-08T00:42:33;16.90;;;7.80;;
71606;SDS011;60641;53.556;9.914;2024-03-08T00:44:59;17.20;;;7.60;;
71606;SDS011;60641;53.556;9.914;2024-03-08T00:47:25;20.80;;;8.00;;
71606;SDS011;60641;53.556;9.914;2024-03-08T00:49:53;18.30;;;8.30;;
71606;SDS011;60641;53.556;9.914;2024-03-08T00:52:19;16.70;;;7.60;;
71606;SDS011;60641;53.556;9.914;2024-03-08T00:54:46;20.20;;;8.80;;
71606;SDS011;60641;53.556;9.914;2024-03-08T00:57:12;21.30;;;9.60;;
71606;SDS011;60641;53.556;9.914;2024-03-08T00:59:38;21.80;;;9.50;;
71606;SDS011;60641;53.556;9.914;2024-03-08T01:02:05;18.50;;;7.80;;
71606;SDS011;60641;53.556;9.914;2024-03-08T01:04:32;19.20;;;8.60;;
71606;SDS011;60641;53.556;9.914;2024-03-08T01:06:59;17.10;;;7.80;;
71606;SDS011;60641;53.556;9.914;2024-03-08T01:09:25;17.60;;;7.90;;
71606;SDS011;60641;53.556;9.914;2024-03-08T01:11:53;19.60;;;8.70;;
71606;SDS011;60641;53.556;9.914;2024-03-08T01:14:23;17.90;;;7.90;;
71606;SDS011;60641;53.556;9.914;2024-03-08T01:16:50;19.70;;;9.20;;
71606;SDS011;60641;53.556;9.914;2024-03-08T01:19:16;17.90;;;8.80;;
71606;SDS011;60641;53.556;9.914;2024-03-08T01:21:43;20.00;;;9.60;;
71606;SDS011;60641;53.556;9.914;2024-03-08T01:24:10;16.40;;;7.00;;
71606;SDS011;60641;53.556;9.914;2024-03-08T01:26:36;20.40;;;9.10;;
71606;SDS011;60641;53.556;9.914;2024-03-08T01:29:03;24.10;;;8.60;;
71606;SDS011;60641;53.556;9.914;2024-03-08T01:31:29;20.80;;;9.20;;
71606;SDS011;60641;53.556;9.914;2024-03-08T01:33:59;18.70;;;9.00;;
71606;SDS011;60641;53.556;9.914;2024-03-08T01:36:26;17.90;;;6.70;;
71606;SDS011;60641;53.556;9.914;2024-03-08T01:38:52;18.50;;;8.80;;
71606;SDS011;60641;53.556;9.914;2024-03-08T01:41:19;21.80;;;9.40;;
71606;SDS011;60641;53.556;9.914;2024-03-08T01:43:45;18.30;;;8.70;;
71606;SDS011;60641;53.556;9.914;2024-03-08T01:46:13;18.00;;;7.40;;
71606;SDS011;60641;53.556;9.914;2024-03-08T01:48:42;21.60;;;9.40;;
71606;SDS011;60641;53.556;9.914;2024-03-08T01:51:09;21.70;;;9.90;;
71606;SDS011;60641;53.556;9.914;2024-03-08T01:53:38;20.70;;;9.30;;
71606;SDS011;60641;53.556;9.914;2024-03-08T01:56:04;22.00;;;9.80;;
71606;SDS011;60641;53.556;9.914;2024-03-08T01:58:32;19.50;;;9.50;;
71606;SDS011;60641;53.556;9.914;2024-03-08T02:00:59;22.50;;;9.60;;
71606;SDS011;60641;53.556;9.914;2024-03-08T02:03:25;21.60;;;9.80;;
71606;SDS011;60641;53.556;9.914;2024-03-08T02:05:52;19.20;;;8.10;;
71606;SDS011;60641;53.556;9.914;2024-03-08T02:08:18;19.70;;;8.50;;
71606;SDS011;60641;53.556;9.914;2024-03-08T02:10:48;19.80;;;8.60;;
71606;SDS011;60641;53.556;9.914;2024-03-08T02:13:15;20.00;;;9.80;;
71606;SDS011;60641;53.556;9.914;2024-03-08T02:18:28;18.10;;;7.60;;
71606;SDS011;60641;53.556;9.914;2024-03-08T02:20:55;19.80;;;9.90;;
71606;SDS011;60641;53.556;9.914;2024-03-08T02:23:23;20.60;;;9.90;;
71606;SDS011;60641;53.556;9.914;2024-03-08T02:25:51;22.10;;;9.90;;
71606;SDS011;60641;53.556;9.914;2024-03-08T02:28:17;20.50;;;8.10;;
71606;SDS011;60641;53.556;9.914;2024-03-08T02:30:47;18.60;;;9.30;;
71606;SDS011;60641;53.556;9.914;2024-03-08T02:33:17;19.30;;;8.90;;
71606;SDS011;60641;53.556;9.914;2024-03-08T02:35:44;20.00;;;8.60;;
71606;SDS011;60641;53.556;9.914;2024-03-08T02:38:17;21.60;;;10.30;;
71606;SDS011;60641;53.556;9.914;2024-03-08T02:40:45;22.10;;;10.20;;
71606;SDS011;60641;53.556;9.914;2024-03-08T02:43:12;21.80;;;9.50;;
71606;SDS011;60641;53.556;9.914;2024-03-08T02:45:40;18.40;;;7.10;;
71606;SDS011;60641;53.556;9.914;2024-03-08T02:48:11;18.30;;;7.80;;
71606;SDS011;60641;53.556;9.914;2024-03-08T02:50:38;20.00;;;9.00;;
71606;SDS011;60641;53.556;9.914;2024-03-08T02:53:08;23.50;;;8.90;;
71606;SDS011;60641;53.556;9.914;2024-03-08T02:55:36;18.60;;;8.30;;
71606;SDS011;60641;53.556;9.914;2024-03-08T02:58:02;21.50;;;9.10;;
71606;SDS011;60641;53.556;9.914;2024-03-08T03:00:29;22.80;;;10.50;;
71606;SDS011;60641;53.556;9.914;2024-03-08T03:02:57;19.50;;;8.10;;
71606;SDS011;60641;53.556;9.914;2024-03-08T03:05:23;20.60;;;10.00;;
71606;SDS011;60641;53.556;9.914;2024-03-08T03:07:50;21.60;;;10.50;;
71606;SDS011;60641;53.556;9.914;2024-03-08T03:10:17;22.40;;;9.60;;
71606;SDS011;60641;53.556;9.914;2024-03-08T03:12:44;19.70;;;9.90;;
71606;SDS011;60641;53.556;9.914;2024-03-08T03:15:12;20.90;;;8.40;;
71606;SDS011;60641;53.556;9.914;2024-03-08T03:17:39;17.50;;;8.00;;
71606;SDS011;60641;53.556;9.914;2024-03-08T03:20:07;22.20;;;10.40;;
71606;SDS011;60641;53.556;9.914;2024-03-08T03:22:39;21.10;;;9.60;;
71606;SDS011;60641;53.556;9.914;2024-03-08T03:25:13;22.00;;;10.00;;
71606;SDS011;60641;53.556;9.914;2024-03-08T03:27:40;18.60;;;8.20;;
71606;SDS011;60641;53.556;9.914;2024-03-08T03:30:08;19.90;;;8.60;;
71606;SDS011;60641;53.556;9.914;2024-03-08T03:32:47;21.30;;;8.60;;
71606;SDS011;60641;53.556;9.914;2024-03-08T03:35:21;19.00;;;8.40;;
71606;SDS011;60641;53.556;9.914;2024-03-08T03:37:47;23.20;;;10.60;;
71606;SDS011;60641;53.556;9.914;2024-03-08T03:40:28;24.50;;;10.00;;
71606;SDS011;60641;53.556;9.914;2024-03-08T03:42:55;18.60;;;8.90;;
71606;SDS011;60641;53.556;9.914;2024-03-08T03:45:22;20.90;;;9.90;;
71606;SDS011;60641;53.556;9.914;2024-03-08T03:47:49;25.30;;;11.10;;
71606;SDS011;60641;53.556;9.914;2024-03-08T03:50:16;24.30;;;11.90;;
71606;SDS011;60641;53.556;9.914;2024-03-08T03:52:42;25.30;;;11.10;;
71606;SDS011;60641;53.556;9.914;2024-03-08T03:55:09;22.20;;;10.60;;
71606;SDS011;60641;53.556;9.914;2024-03-08T03:57:38;20.30;;;8.80;;
71606;SDS011;60641;53.556;9.914;2024-03-08T04:00:04;21.80;;;9.20;;
71606;SDS011;60641;53.556;9.914;2024-03-08T04:02:40;20.00;;;9.20;;
71606;SDS011;60641;53.556;9.914;2024-03-08T04:05:07;22.50;;;9.70;;
71606;SDS011;60641;53.556;9.914;2024-03-08T04:07:35;20.70;;;8.30;;
71606;SDS011;60641;53.556;9.914;2024-03-08T04:10:03;21.20;;;9.40;;
71606;SDS011;60641;53.556;9.914;2024-03-08T04:12:30;23.10;;;9.30;;
71606;SDS011;60641;53.556;9.914;2024-03-08T04:14:56;24.70;;;10.30;;
71606;SDS011;60641;53.556;9.914;2024-03-08T04:17:23;27.70;;;11.20;;
71606;SDS011;60641;53.556;9.914;2024-03-08T04:19:52;23.30;;;10.40;;
71606;SDS011;60641;53.556;9.914;2024-03-08T04:22:19;23.20;;;10.70;;
71606;SDS011;60641;53.556;9.914;2024-03-08T04:24:46;19.10;;;8.30;;
71606;SDS011;60641;53.556;9.914;2024-03-08T04:27:13;27.70;;;10.90;;
71606;SDS011;60641;53.556;9.914;2024-03-08T04:29:40;21.50;;;10.30;;
71606;SDS011;60641;53.556;9.914;2024-03-08T04:32:07;19.80;;;9.10;;
71606;SDS011;60641;53.556;9.914;2024-03-08T04:34:35;18.70;;;8.10;;
71606;SDS011;60641;53.556;9.914;2024-03-08T04:37:01;23.00;;;9.30;;
71606;SDS011;60641;53.556;9.914;2024-03-08T04:39:28;22.80;;;10.20;;
71606;SDS011;60641;53.556;9.914;2024-03-08T04:41:55;20.90;;;8.90;;
71606;SDS011;60641;53.556;9.914;2024-03-08T04:44:24;23.60;;;9.70;;
71606;SDS011;60641;53.556;9.914;2024-03-08T04:46:53;23.20;;;9.20;;
71606;SDS011;60641;53.556;9.914;2024-03-08T04:49:20;26.30;;;11.30;;
71606;SDS011;60641;53.556;9.914;2024-03-08T04:51:47;22.00;;;10.80;;
71606;SDS011;60641;53.556;9.914;2024-03-08T04:54:14;20.60;;;8.70;;
71606;SDS011;60641;53.556;9.914;2024-03-08T04:56:41;19.90;;;8.70;;
71606;SDS011;60641;53.556;9.914;2024-03-08T04:59:07;25.70;;;10.10;;
71606;SDS011;60641;53.556;9.914;2024-03-08T05:01:34;20.70;;;7.80;;
71606;SDS011;60641;53.556;9.914;2024-03-08T05:04:04;20.80;;;8.20;;
71606;SDS011;60641;53.556;9.914;2024-03-08T05:06:31;24.30;;;10.20;;
71606;SDS011;60641;53.556;9.914;2024-03-08T05:08:58;19.70;;;8.20;;
71606;SDS011;60641;53.556;9.914;2024-03-08T05:11:24;21.50;;;9.00;;
71606;SDS011;60641;53.556;9.914;2024-03-08T05:13:51;25.50;;;10.50;;
71606;SDS011;60641;53.556;9.914;2024-03-08T05:16:17;27.40;;;11.90;;
71606;SDS011;60641;53.556;9.914;2024-03-08T05:18:44;23.50;;;9.20;;
71606;SDS011;60641;53.556;9.914;2024-03-08T05:21:13;20.40;;;8.70;;
71606;SDS011;60641;53.556;9.914;2024-03-08T05:23:39;20.30;;;9.90;;
71606;SDS011;60641;53.556;9.914;2024-03-08T05:26:06;24.90;;;10.30;;
71606;SDS011;60641;53.556;9.914;2024-03-08T05:28:32;22.20;;;9.50;;
71606;SDS011;60641;53.556;9.914;2024-03-08T05:30:59;23.30;;;9.20;;
71606;SDS011;60641;53.556;9.914;2024-03-08T05:33:26;18.30;;;8.40;;
71606;SDS011;60641;53.556;9.914;2024-03-08T05:35:52;23.60;;;11.20;;
71606;SDS011;60641;53.556;9.914;2024-03-08T05:38:20;23.50;;;9.50;;
71606;SDS011;60641;53.556;9.914;2024-03-08T05:40:47;29.10;;;11.00;;
71606;SDS011;60641;53.556;9.914;2024-03-08T05:43:13;21.60;;;9.90;;
71606;SDS011;60641;53.556;9.914;2024-03-08T05:45:43;21.50;;;9.00;;
71606;SDS011;60641;53.556;9.914;2024-03-08T05:48:10;22.70;;;9.30;;
71606;SDS011;60641;53.556;9.914;2024-03-08T05:50:38;20.40;;;8.40;;
71606;SDS011;60641;53.556;9.914;2024-03-08T05:53:04;21.20;;;8.80;;
71606;SDS011;60641;53.556;9.914;2024-03-08T05:55:32;24.60;;;10.80;;
71606;SDS011;60641;53.556;9.914;2024-03-08T05:58:02;23.10;;;10.10;;
71606;SDS011;60641;53.556;9.914;2024-03-08T06:00:28;22.50;;;9.70;;
71606;SDS011;60641;53.556;9.914;2024-03-08T06:02:57;24.00;;;10.50;;
71606;SDS011;60641;53.556;9.914;2024-03-08T06:05:24;22.20;;;10.40;;
71606;SDS011;60641;53.556;9.914;2024-03-08T06:07:51;22.80;;;9.30;;
71606;SDS011;60641;53.556;9.914;2024-03-08T06:10:19;22.80;;;8.60;;
71606;SDS011;60641;53.556;9.914;2024-03-08T06:12:46;25.60;;;11.50;;
71606;SDS011;60641;53.556;9.914;2024-03-08T06:15:12;24.90;;;10.40;;
71606;SDS011;60641;53.556;9.914;2024-03-08T06:17:42;22.70;;;8.90;;
71606;SDS011;60641;53.556;9.914;2024-03-08T06:20:08;23.00;;;9.30;;
71606;SDS011;60641;53.556;9.914;2024-03-08T06:22:39;22.90;;;10.80;;
71606;SDS011;60641;53.556;9.914;2024-03-08T06:25:07;18.70;;;7.90;;
71606;SDS011;60641;53.556;9.914;2024-03-08T06:27:35;25.10;;;9.90;;
71606;SDS011;60641;53.556;9.914;2024-03-08T06:30:01;26.30;;;11.90;;
71606;SDS011;60641;53.556;9.914;2024-03-08T06:32:30;24.60;;;10.20;;
71606;SDS011;60641;53.556;9.914;2024-03-08T06:35:04;23.80;;;9.10;;
71606;SDS011;60641;53.556;9.914;2024-03-08T06:37:32;25.40;;;11.50;;
71606;SDS011;60641;53.556;9.914;2024-03-08T06:40:00;23.80;;;10.20;;
71606;SDS011;60641;53.556;9.914;2024-03-08T06:42:28;22.40;;;9.30;;
71606;SDS011;60641;53.556;9.914;2024-03-08T06:44:55;21.20;;;8.80;;
71606;SDS011;60641;53.556;9.914;2024-03-08T06:47:26;23.00;;;9.00;;
71606;SDS011;60641;53.556;9.914;2024-03-08T06:49:52;26.10;;;10.20;;
71606;SDS011;60641;53.556;9.914;2024-03-08T06:52:18;21.40;;;10.20;;
71606;SDS011;60641;53.556;9.914;2024-03-08T06:54:45;24.10;;;11.00;;
71606;SDS011;60641;53.556;9.914;2024-03-08T06:57:11;19.30;;;7.50;;
71606;SDS011;60641;53.556;9.914;2024-03-08T06:59:38;27.40;;;12.60;;
71606;SDS011;60641;53.556;9.914;2024-03-08T07:02:04;27.40;;;10.30;;
71606;SDS011;60641;53.556;9.914;2024-03-08T07:04:31;23.50;;;10.20;;
71606;SDS011;60641;53.556;9.914;2024-03-08T07:06:59;29.40;;;10.80;;
71606;SDS011;60641;53.556;9.914;2024-03-08T07:09:28;21.80;;;8.80;;
71606;SDS011;60641;53.556;9.914;2024-03-08T07:11:55;28.70;;;11.60;;
71606;SDS011;60641;53.556;9.914;2024-03-08T07:14:21;26.30;;;11.50;;
71606;SDS011;60641;53.556;9.914;2024-03-08T07:16:48;19.70;;;9.30;;
71606;SDS011;60641;53.556;9.914;2024-03-08T07:19:16;23.30;;;9.50;;
71606;SDS011;60641;53.556;9.914;2024-03-08T07:21:43;26.30;;;12.00;;
71606;SDS011;60641;53.556;9.914;2024-03-08T07:24:10;20.20;;;8.40;;
71606;SDS011;60641;53.556;9.914;2024-03-08T07:26:43;23.30;;;11.60;;
71606;SDS011;60641;53.556;9.914;2024-03-08T07:29:10;21.90;;;9.70;;
71606;SDS011;60641;53.556;9.914;2024-03-08T07:31:36;21.30;;;8.90;;
71606;SDS011;60641;53.556;9.914;2024-03-08T07:34:32;30.10;;;11.90;;
71606;SDS011;60641;53.556;9.914;2024-03-08T07:36:59;27.00;;;11.80;;
71606;SDS011;60641;53.556;9.914;2024-03-08T07:39:26;26.10;;;11.00;;
71606;SDS011;60641;53.556;9.914;2024-03-08T07:41:52;22.00;;;10.20;;
71606;SDS011;60641;53.556;9.914;2024-03-08T07:44:19;24.50;;;10.60;;
71606;SDS011;60641;53.556;9.914;2024-03-08T07:46:45;22.10;;;10.40;;
71606;SDS011;60641;53.556;9.914;2024-03-08T07:49:12;27.40;;;13.50;;
71606;SDS011;60641;53.556;9.914;2024-03-08T07:51:38;23.10;;;10.80;;
71606;SDS011;60641;53.556;9.914;2024-03-08T07:54:05;24.80;;;11.20;;
71606;SDS011;60641;53.556;9.914;2024-03-08T07:56:31;26.60;;;12.10;;
71606;SDS011;60641;53.556;9.914;2024-03-08T07:58:58;25.30;;;11.50;;
71606;SDS011;60641;53.556;9.914;2024-03-08T08:01:24;23.60;;;11.80;;
71606;SDS011;60641;53.556;9.914;2024-03-08T08:03:51;27.70;;;13.40;;
71606;SDS011;60641;53.556;9.914;2024-03-08T08:06:17;22.70;;;9.80;;
71606;SDS011;60641;53.556;9.914;2024-03-08T08:08:44;25.00;;;12.30;;
71606;SDS011;60641;53.556;9.914;2024-03-08T08:11:11;26.30;;;11.80;;
71606;SDS011;60641;53.556;9.914;2024-03-08T08:13:37;22.90;;;11.20;;
71606;SDS011;60641;53.556;9.914;2024-03-08T08:16:04;25.00;;;11.70;;
71606;SDS011;60641;53.556;9.914;2024-03-08T08:18:32;25.70;;;12.30;;
71606;SDS011;60641;53.556;9.914;2024-03-08T08:20:59;28.40;;;13.20;;
71606;SDS011;60641;53.556;9.914;2024-03-08T08:23:28;28.30;;;12.50;;
71606;SDS011;60641;53.556;9.914;2024-03-08T08:25:58;29.80;;;12.70;;
71606;SDS011;60641;53.556;9.914;2024-03-08T08:28:25;25.90;;;11.80;;
71606;SDS011;60641;53.556;9.914;2024-03-08T08:30:51;25.20;;;13.10;;
71606;SDS011;60641;53.556;9.914;2024-03-08T08:33:18;24.30;;;11.60;;
71606;SDS011;60641;53.556;9.914;2024-03-08T08:35:45;27.40;;;13.60;;
71606;SDS011;60641;53.556;9.914;2024-03-08T08:38:13;26.80;;;12.30;;
71606;SDS011;60641;53.556;9.914;2024-03-08T08:40:40;27.30;;;13.10;;
71606;SDS011;60641;53.556;9.914;2024-03-08T08:43:07;22.90;;;11.70;;
71606;SDS011;60641;53.556;9.914;2024-03-08T08:45:34;21.90;;;10.70;;
71606;SDS011;60641;53.556;9.914;2024-03-08T08:48:00;26.40;;;13.70;;
71606;SDS011;60641;53.556;9.914;2024-03-08T08:50:27;26.80;;;11.10;;
71606;SDS011;60641;53.556;9.914;2024-03-08T08:52:54;26.70;;;12.50;;
71606;SDS011;60641;53.556;9.914;2024-03-08T08:55:21;27.60;;;12.90;;
71606;SDS011;60641;53.556;9.914;2024-03-08T08:57:51;25.10;;;13.10;;
71606;SDS011;60641;53.556;9.914;2024-03-08T09:00:19;27.70;;;13.70;;
71606;SDS011;60641;53.556;9.914;2024-03-08T09:02:46;26.20;;;13.20;;
71606;SDS011;60641;53.556;9.914;2024-03-08T09:05:14;28.40;;;13.10;;
71606;SDS011;60641;53.556;9.914;2024-03-08T09:07:43;28.10;;;12.20;;
71606;SDS011;60641;53.556;9.914;2024-03-08T09:10:13;26.90;;;12.80;;
71606;SDS011;60641;53.556;9.914;2024-03-08T09:12:40;26.70;;;13.30;;
71606;SDS011;60641;53.556;9.914;2024-03-08T09:15:07;26.70;;;12.90;;
71606;SDS011;60641;53.556;9.914;2024-03-08T09:17:39;30.00;;;14.20;;
71606;SDS011;60641;53.556;9.914;2024-03-08T09:20:06;25.70;;;12.00;;
71606;SDS011;60641;53.556;9.914;2024-03-08T09:22:34;26.20;;;13.20;;
71606;SDS011;60641;53.556;9.914;2024-03-08T09:25:01;27.60;;;12.80;;
71606;SDS011;60641;53.556;9.914;2024-03-08T09:27:28;27.50;;;12.50;;
71606;SDS011;60641;53.556;9.914;2024-03-08T09:29:54;25.70;;;12.20;;
71606;SDS011;60641;53.556;9.914;2024-03-08T09:32:21;28.30;;;14.00;;
71606;SDS011;60641;53.556;9.914;2024-03-08T09:34:48;22.00;;;11.40;;
71606;SDS011;60641;53.556;9.914;2024-03-08T09:37:16;27.30;;;12.80;;
71606;SDS011;60641;53.556;9.914;2024-03-08T09:39:43;27.60;;;11.50;;
71606;SDS011;60641;53.556;9.914;2024-03-08T09:42:10;25.40;;;12.70;;
71606;SDS011;60641;53.556;9.914;2024-03-08T09:44:44;24.80;;;13.00;;
71606;SDS011;60641;53.556;9.914;2024-03-08T09:47:15;24.50;;;12.30;;
71606;SDS011;60641;53.556;9.914;2024-03-08T09:49:42;22.00;;;10.90;;
71606;SDS011;60641;53.556;9.914;2024-03-08T09:52:09;25.90;;;13.80;;
71606;SDS011;60641;53.556;9.914;2024-03-08T09:54:39;22.60;;;11.80;;
71606;SDS011;60641;53.556;9.914;2024-03-08T09:57:06;24.50;;;12.40;;
71606;SDS011;60641;53.556;9.914;2024-03-08T09:59:34;22.50;;;10.90;;
71606;SDS011;60641;53.556;9.914;2024-03-08T10:02:03;27.00;;;13.40;;
71606;SDS011;60641;53.556;9.914;2024-03-08T10:04:31;23.80;;;10.50;;
71606;SDS011;60641;53.556;9.914;2024-03-08T10:06:58;29.00;;;13.40;;
71606;SDS011;60641;53.556;9.914;2024-03-08T10:09:25;25.30;;;12.40;;
71606;SDS011;60641;53.556;9.914;2024-03-08T10:11:56;26.00;;;12.10;;
71606;SDS011;60641;53.556;9.914;2024-03-08T10:14:24;24.60;;;11.90;;
71606;SDS011;60641;53.556;9.914;2024-03-08T10:16:52;27.40;;;13.40;;
71606;SDS011;60641;53.556;9.914;2024-03-08T10:19:19;25.50;;;13.20;;
71606;SDS011;60641;53.556;9.914;2024-03-08T10:21:49;25.80;;;12.60;;
71606;SDS011;60641;53.556;9.914;2024-03-08T10:24:18;22.30;;;11.10;;
71606;SDS011;60641;53.556;9.914;2024-03-08T10:26:45;28.50;;;12.60;;
71606;SDS011;60641;53.556;9.914;2024-03-08T10:29:12;22.40;;;11.40;;
71606;SDS011;60641;53.556;9.914;2024-03-08T10:31:44;24.70;;;11.50;;
71606;SDS011;60641;53.556;9.914;2024-03-08T10:34:11;22.50;;;11.40;;
71606;SDS011;60641;53.556;9.914;2024-03-08T10:36:39;25.10;;;13.00;;
71606;SDS011;60641;53.556;9.914;2024-03-08T10:39:40;23.60;;;11.60;;
71606;SDS011;60641;53.556;9.914;2024-03-08T10:42:03;27.30;;;12.30;;
71606;SDS011;60641;53.556;9.914;2024-03-08T10:52:17;24.90;;;10.90;;
71606;SDS011;60641;53.556;9.914;2024-03-08T10:54:45;22.10;;;10.60;;
71606;SDS011;60641;53.556;9.914;2024-03-08T10:57:12;24.00;;;10.60;;
71606;SDS011;60641;53.556;9.914;2024-03-08T10:59:39;21.70;;;11.00;;
71606;SDS011;60641;53.556;9.914;2024-03-08T11:02:06;24.60;;;10.60;;
71606;SDS011;60641;53.556;9.914;2024-03-08T11:04:33;21.90;;;10.80;;
71606;SDS011;60641;53.556;9.914;2024-03-08T11:07:02;23.60;;;10.20;;
71606;SDS011;60641;53.556;9.914;2024-03-08T11:09:36;22.70;;;10.50;;
71606;SDS011;60641;53.556;9.914;2024-03-08T11:14:55;22.20;;;10.60;;
71606;SDS011;60641;53.556;9.914;2024-03-08T11:17:46;23.80;;;11.20;;
71606;SDS011;60641;53.556;9.914;2024-03-08T11:20:13;25.50;;;11.30;;
71606;SDS011;60641;53.556;9.914;2024-03-08T11:22:54;22.60;;;11.70;;
71606;SDS011;60641;53.556;9.914;2024-03-08T11:25:31;24.00;;;9.30;;
71606;SDS011;60641;53.556;9.914;2024-03-08T11:28:08;22.30;;;10.20;;
71606;SDS011;60641;53.556;9.914;2024-03-08T11:30:45;22.20;;;10.20;;
71606;SDS011;60641;53.556;9.914;2024-03-08T11:33:15;20.90;;;9.70;;
71606;SDS011;60641;53.556;9.914;2024-03-08T11:35:42;21.20;;;10.40;;
71606;SDS011;60641;53.556;9.914;2024-03-08T11:38:12;20.40;;;9.50;;
71606;SDS011;60641;53.556;9.914;2024-03-08T11:40:39;23.00;;;9.80;;
71606;SDS011;60641;53.556;9.914;2024-03-08T11:43:06;21.60;;;10.90;;
71606;SDS011;60641;53.556;9.914;2024-03-08T11:45:34;22.40;;;9.90;;
71606;SDS011;60641;53.556;9.914;2024-03-08T11:48:02;25.50;;;11.00;;
71606;SDS011;60641;53.556;9.914;2024-03-08T11:50:30;23.90;;;10.90;;
71606;SDS011;60641;53.556;9.914;2024-03-08T11:53:02;22.50;;;10.80;;
71606;SDS011;60641;53.556;9.914;2024-03-08T11:55:30;21.10;;;10.10;;
71606;SDS011;60641;53.556;9.914;2024-03-08T11:58:02;20.20;;;10.30;;
71606;SDS011;60641;53.556;9.914;2024-03-08T12:00:29;18.40;;;9.00;;
71606;SDS011;60641;53.556;9.914;2024-03-08T12:03:02;21.90;;;10.30;;
71606;SDS011;60641;53.556;9.914;2024-03-08T12:05:32;20.30;;;10.20;;
71606;SDS011;60641;53.556;9.914;2024-03-08T12:08:02;18.70;;;9.50;;
71606;SDS011;60641;53.556;9.914;2024-03-08T12:10:29;20.50;;;9.70;;
71606;SDS011;60641;53.556;9.914;2024-03-08T12:12:56;17.90;;;8.60;;
71606;SDS011;60641;53.556;9.914;2024-03-08T12:15:25;19.90;;;10.30;;
71606;SDS011;60641;53.556;9.914;2024-03-08T12:17:52;23.20;;;9.70;;
71606;SDS011;60641;53.556;9.914;2024-03-08T12:20:22;19.90;;;10.50;;
71606;SDS011;60641;53.556;9.914;2024-03-08T12:22:52;20.30;;;9.80;;
71606;SDS011;60641;53.556;9.914;2024-03-08T12:25:19;21.20;;;9.10;;
71606;SDS011;60641;53.556;9.914;2024-03-08T12:27:46;22.50;;;10.60;;
71606;SDS011;60641;53.556;9.914;2024-03-08T12:32:56;21.70;;;10.50;;
71606;SDS011;60641;53.556;9.914;2024-03-08T12:35:24;21.20;;;10.60;;
71606;SDS011;60641;53.556;9.914;2024-03-08T12:37:52;22.50;;;11.10;;
71606;SDS011;60641;53.556;9.914;2024-03-08T12:40:19;21.40;;;10.70;;
71606;SDS011;60641;53.556;9.914;2024-03-08T12:42:58;23.00;;;10.80;;
71606;SDS011;60641;53.556;9.914;2024-03-08T12:45:25;15.90;;;7.50;;
71606;SDS011;60641;53.556;9.914;2024-03-08T12:47:51;21.10;;;9.20;;
71606;SDS011;60641;53.556;9.914;2024-03-08T12:50:19;22.00;;;11.00;;
71606;SDS011;60641;53.556;9.914;2024-03-08T12:52:46;19.60;;;10.60;;
71606;SDS011;60641;53.556;9.914;2024-03-08T12:55:15;19.90;;;9.50;;
71606;SDS011;60641;53.556;9.914;2024-03-08T12:57:42;17.70;;;8.60;;
71606;SDS011;60641;53.556;9.914;2024-03-08T13:00:09;19.80;;;10.30;;
71606;SDS011;60641;53.556;9.914;2024-03-08T13:02:39;17.70;;;7.70;;
71606;SDS011;60641;53.556;9.914;2024-03-08T13:05:06;21.80;;;8.80;;
71606;SDS011;60641;53.556;9.914;2024-03-08T13:07:35;19.90;;;9.00;;
71606;SDS011;60641;53.556;9.914;2024-03-08T13:10:03;22.40;;;10.00;;
71606;SDS011;60641;53.556;9.914;2024-03-08T13:12:30;21.60;;;10.20;;
71606;SDS011;60641;53.556;9.914;2024-03-08T13:14:57;22.20;;;10.40;;
71606;SDS011;60641;53.556;9.914;2024-03-08T13:17:24;19.90;;;9.30;;
71606;SDS011;60641;53.556;9.914;2024-03-08T13:19:50;19.30;;;10.30;;
71606;SDS011;60641;53.556;9.914;2024-03-08T13:22:17;21.20;;;8.90;;
71606;SDS011;60641;53.556;9.914;2024-03-08T13:25:05;20.70;;;10.20;;
71606;SDS011;60641;53.556;9.914;2024-03-08T13:27:40;18.90;;;9.90;;
71606;SDS011;60641;53.556;9.914;2024-03-08T13:30:14;21.00;;;8.20;;
71606;SDS011;60641;53.556;9.914;2024-03-08T13:32:53;17.60;;;8.80;;
71606;SDS011;60641;53.556;9.914;2024-03-08T13:35:20;18.80;;;7.70;;
71606;SDS011;60641;53.556;9.914;2024-03-08T13:37:51;20.70;;;10.10;;
71606;SDS011;60641;53.556;9.914;2024-03-08T13:40:18;22.50;;;9.50;;
71606;SDS011;60641;53.556;9.914;2024-03-08T13:42:47;19.70;;;8.80;;
71606;SDS011;60641;53.556;9.914;2024-03-08T13:45:15;18.00;;;8.40;;
71606;SDS011;60641;53.556;9.914;2024-03-08T13:47:53;19.70;;;9.40;;
71606;SDS011;60641;53.556;9.914;2024-03-08T13:50:20;19.50;;;9.60;;
71606;SDS011;60641;53.556;9.914;2024-03-08T13:52:52;18.40;;;8.90;;
71606;SDS011;60641;53.556;9.914;2024-03-08T13:55:20;19.00;;;8.40;;
71606;SDS011;60641;53.556;9.914;2024-03-08T13:57:51;21.10;;;9.50;;
71606;SDS011;60641;53.556;9.914;2024-03-08T14:00:18;18.10;;;9.10;;
71606;SDS011;60641;53.556;9.914;2024-03-08T14:02:49;19.00;;;9.20;;
71606;SDS011;60641;53.556;9.914;2024-03-08T14:05:16;20.70;;;8.80;;
71606;SDS011;60641;53.556;9.914;2024-03-08T14:07:45;18.80;;;8.50;;
71606;SDS011;60641;53.556;9.914;2024-03-08T14:10:15;20.10;;;9.60;;
71606;SDS011;60641;53.556;9.914;2024-03-08T14:12:42;20.20;;;9.10;;
71606;SDS011;60641;53.556;9.914;2024-03-08T14:15:09;19.60;;;9.60;;
71606;SDS011;60641;53.556;9.914;2024-03-08T14:17:37;18.20;;;8.20;;
71606;SDS011;60641;53.556;9.914;2024-03-08T14:20:03;19.60;;;8.70;;
71606;SDS011;60641;53.556;9.914;2024-03-08T14:22:30;19.10;;;9.00;;
71606;SDS011;60641;53.556;9.914;2024-03-08T14:24:57;17.00;;;7.10;;
71606;SDS011;60641;53.556;9.914;2024-03-08T14:27:24;18.10;;;7.90;;
71606;SDS011;60641;53.556;9.914;2024-03-08T14:29:53;16.70;;;8.00;;
71606;SDS011;60641;53.556;9.914;2024-03-08T14:32:21;17.30;;;7.50;;
71606;SDS011;60641;53.556;9.914;2024-03-08T14:34:49;16.30;;;7.80;;
71606;SDS011;60641;53.556;9.914;2024-03-08T14:37:15;17.60;;;8.60;;
71606;SDS011;60641;53.556;9.914;2024-03-08T14:39:41;16.70;;;8.30;;
71606;SDS011;60641;53.556;9.914;2024-03-08T14:42:08;16.30;;;8.10;;
71606;SDS011;60641;53.556;9.914;2024-03-08T14:44:39;17.20;;;8.10;;
71606;SDS011;60641;53.556;9.914;2024-03-08T14:47:05;17.60;;;8.80;;
71606;SDS011;60641;53.556;9.914;2024-03-08T14:49:32;17.00;;;7.90;;